sensor_id;sensor_type;location;lat;lon;timestamp;P1;durP1;ratioP1;P2;durP2;ratioP2
18822;SDS011;9540;51.550;7.980;2022-11-21T00:00:27;58.63;;;23.63;;
18822;SDS011;9540;51.550;7.980;2022-11-21T00:02:56;55.83;;;22.07;;
18822;SDS011;9540;51.550;7.980;2022-11-21T00:05:23;57.53;;;22.07;;
18822;SDS011;9540;51.550;7.980;2022-11-21T00:07:50;62.17;;;24.70;;
18822;SDS011;9540;51.550;7.980;2022-11-21T00:10:17;57.63;;;21.17;;
18822;SDS011;9540;51.550;7.980;2022-11-21T00:12:44;52.60;;;21.23;;
18822;SDS011;9540;51.550;7.980;2022-11-21T00:15:11;65.43;;;23.17;;
18822;SDS011;9540;51.550;7.980;2022-11-21T00:17:40;51.23;;;22.53;;
18822;SDS011;9540;51.550;7.980;2022-11-21T00:20:07;53.27;;;22.00;;
18822;SDS011;9540;51.550;7.980;2022-11-21T00:22:34;53.50;;;22.63;;
18822;SDS011;9540;51.550;7.980;2022-11-21T00:25:01;57.43;;;25.03;;
18822;SDS011;9540;51.550;7.980;2022-11-21T00:27:29;67.70;;;23.90;;
18822;SDS011;9540;51.550;7.980;2022-11-21T00:29:56;62.90;;;23.30;;
18822;SDS011;9540;51.550;7.980;2022-11-21T00:32:23;60.23;;;22.23;;
18822;SDS011;9540;51.550;7.980;2022-11-21T00:34:52;58.50;;;22.67;;
18822;SDS011;9540;51.550;7.980;2022-11-21T00:37:18;61.23;;;24.77;;
18822;SDS011;9540;51.550;7.980;2022-11-21T00:39:45;56.30;;;24.70;;
18822;SDS011;9540;51.550;7.980;2022-11-21T00:42:12;61.43;;;24.03;;
18822;SDS011;9540;51.550;7.980;2022-11-21T00:44:39;54.10;;;22.77;;
18822;SDS011;9540;51.550;7.980;2022-11-21T00:47:06;59.97;;;22.27;;
18822;SDS011;9540;51.550;7.980;2022-11-21T00:49:33;50.67;;;21.57;;
18822;SDS011;9540;51.550;7.980;2022-11-21T00:52:02;55.50;;;22.40;;
18822;SDS011;9540;51.550;7.980;2022-11-21T00:54:29;56.43;;;22.60;;
18822;SDS011;9540;51.550;7.980;2022-11-21T00:56:56;55.80;;;22.80;;
18822;SDS011;9540;51.550;7.980;2022-11-21T00:59:23;52.20;;;22.20;;
18822;SDS011;9540;51.550;7.980;2022-11-21T01:01:50;53.00;;;22.20;;
18822;SDS011;9540;51.550;7.980;2022-11-21T01:04:17;46.20;;;21.07;;
18822;SDS011;9540;51.550;7.980;2022-11-21T01:06:44;61.43;;;23.07;;
18822;SDS011;9540;51.550;7.980;2022-11-21T01:09:12;54.37;;;21.80;;
18822;SDS011;9540;51.550;7.980;2022-11-21T01:11:39;46.10;;;19.80;;
18822;SDS011;9540;51.550;7.980;2022-11-21T01:14:06;55.73;;;21.93;;
18822;SDS011;9540;51.550;7.980;2022-11-21T01:16:33;58.57;;;22.80;;
18822;SDS011;9540;51.550;7.980;2022-11-21T01:19:00;54.00;;;21.27;;
18822;SDS011;9540;51.550;7.980;2022-11-21T01:21:28;53.83;;;21.33;;
18822;SDS011;9540;51.550;7.980;2022-11-21T01:23:57;59.30;;;24.27;;
18822;SDS011;9540;51.550;7.980;2022-11-21T01:26:27;58.57;;;22.57;;
18822;SDS011;9540;51.550;7.980;2022-11-21T01:28:56;66.50;;;23.87;;
18822;SDS011;9540;51.550;7.980;2022-11-21T01:31:23;70.87;;;24.13;;
18822;SDS011;9540;51.550;7.980;2022-11-21T01:33:52;66.93;;;23.33;;
18822;SDS011;9540;51.550;7.980;2022-11-21T01:36:20;54.57;;;23.63;;
18822;SDS011;9540;51.550;7.980;2022-11-21T01:38:48;50.70;;;21.43;;
18822;SDS011;9540;51.550;7.980;2022-11-21T01:41:17;66.20;;;26.03;;
18822;SDS011;9540;51.550;7.980;2022-11-21T01:43:46;64.47;;;25.47;;
18822;SDS011;9540;51.550;7.980;2022-11-21T01:46:15;89.63;;;31.93;;
18822;SDS011;9540;51.550;7.980;2022-11-21T01:48:44;75.17;;;27.87;;
18822;SDS011;9540;51.550;7.980;2022-11-21T01:51:16;54.93;;;23.83;;
18822;SDS011;9540;51.550;7.980;2022-11-21T01:53:47;49.73;;;21.37;;
18822;SDS011;9540;51.550;7.980;2022-11-21T01:56:20;61.63;;;22.47;;
18822;SDS011;9540;51.550;7.980;2022-11-21T01:58:51;55.53;;;22.37;;
18822;SDS011;9540;51.550;7.980;2022-11-21T02:01:21;69.80;;;22.87;;
18822;SDS011;9540;51.550;7.980;2022-11-21T02:03:48;49.87;;;22.37;;
18822;SDS011;9540;51.550;7.980;2022-11-21T02:06:18;57.40;;;22.63;;
18822;SDS011;9540;51.550;7.980;2022-11-21T02:08:46;58.67;;;21.10;;
18822;SDS011;9540;51.550;7.980;2022-11-21T02:11:15;58.23;;;23.63;;
18822;SDS011;9540;51.550;7.980;2022-11-21T02:13:50;66.70;;;21.73;;
18822;SDS011;9540;51.550;7.980;2022-11-21T02:16:18;61.33;;;23.23;;
18822;SDS011;9540;51.550;7.980;2022-11-21T02:18:45;53.57;;;21.57;;
18822;SDS011;9540;51.550;7.980;2022-11-21T02:21:15;68.33;;;23.00;;
18822;SDS011;9540;51.550;7.980;2022-11-21T02:23:48;50.40;;;21.53;;
18822;SDS011;9540;51.550;7.980;2022-11-21T02:26:22;56.37;;;23.47;;
18822;SDS011;9540;51.550;7.980;2022-11-21T02:28:49;65.63;;;23.80;;
18822;SDS011;9540;51.550;7.980;2022-11-21T02:31:16;73.10;;;27.00;;
18822;SDS011;9540;51.550;7.980;2022-11-21T02:33:43;57.70;;;24.43;;
18822;SDS011;9540;51.550;7.980;2022-11-21T02:39:00;62.47;;;24.20;;
18822;SDS011;9540;51.550;7.980;2022-11-21T02:41:29;56.70;;;24.23;;
18822;SDS011;9540;51.550;7.980;2022-11-21T02:44:00;62.03;;;24.00;;
18822;SDS011;9540;51.550;7.980;2022-11-21T02:46:29;65.77;;;24.93;;
18822;SDS011;9540;51.550;7.980;2022-11-21T02:48:58;76.17;;;26.77;;
18822;SDS011;9540;51.550;7.980;2022-11-21T02:51:29;68.20;;;26.13;;
18822;SDS011;9540;51.550;7.980;2022-11-21T02:53:56;74.67;;;25.33;;
18822;SDS011;9540;51.550;7.980;2022-11-21T02:56:23;61.27;;;22.83;;
18822;SDS011;9540;51.550;7.980;2022-11-21T02:58:51;62.40;;;23.63;;
18822;SDS011;9540;51.550;7.980;2022-11-21T03:01:18;66.30;;;27.37;;
18822;SDS011;9540;51.550;7.980;2022-11-21T03:03:45;64.10;;;25.77;;
18822;SDS011;9540;51.550;7.980;2022-11-21T03:06:12;62.47;;;25.03;;
18822;SDS011;9540;51.550;7.980;2022-11-21T03:08:39;70.20;;;25.07;;
18822;SDS011;9540;51.550;7.980;2022-11-21T03:11:06;81.00;;;28.40;;
18822;SDS011;9540;51.550;7.980;2022-11-21T03:13:33;85.33;;;27.57;;
18822;SDS011;9540;51.550;7.980;2022-11-21T03:16:02;61.70;;;24.13;;
18822;SDS011;9540;51.550;7.980;2022-11-21T03:18:29;64.17;;;25.23;;
18822;SDS011;9540;51.550;7.980;2022-11-21T03:20:56;86.53;;;26.33;;
18822;SDS011;9540;51.550;7.980;2022-11-21T03:23:23;71.43;;;24.67;;
18822;SDS011;9540;51.550;7.980;2022-11-21T03:25:50;55.80;;;22.07;;
18822;SDS011;9540;51.550;7.980;2022-11-21T03:28:17;62.37;;;22.43;;
18822;SDS011;9540;51.550;7.980;2022-11-21T03:30:44;64.17;;;23.43;;
18822;SDS011;9540;51.550;7.980;2022-11-21T03:33:13;61.53;;;22.80;;
18822;SDS011;9540;51.550;7.980;2022-11-21T03:35:40;58.83;;;23.67;;
18822;SDS011;9540;51.550;7.980;2022-11-21T03:38:07;79.90;;;26.53;;
18822;SDS011;9540;51.550;7.980;2022-11-21T03:40:34;71.57;;;24.40;;
18822;SDS011;9540;51.550;7.980;2022-11-21T03:43:02;58.77;;;22.70;;
18822;SDS011;9540;51.550;7.980;2022-11-21T03:45:30;64.77;;;22.53;;
18822;SDS011;9540;51.550;7.980;2022-11-21T03:47:57;75.30;;;24.77;;
18822;SDS011;9540;51.550;7.980;2022-11-21T03:50:26;85.33;;;24.23;;
18822;SDS011;9540;51.550;7.980;2022-11-21T03:52:55;68.00;;;24.17;;
18822;SDS011;9540;51.550;7.980;2022-11-21T03:55:22;70.53;;;23.77;;
18822;SDS011;9540;51.550;7.980;2022-11-21T03:57:49;61.60;;;22.77;;
18822;SDS011;9540;51.550;7.980;2022-11-21T04:00:16;74.50;;;24.27;;
18822;SDS011;9540;51.550;7.980;2022-11-21T04:02:43;71.03;;;24.73;;
18822;SDS011;9540;51.550;7.980;2022-11-21T04:05:10;68.83;;;24.03;;
18822;SDS011;9540;51.550;7.980;2022-11-21T04:07:39;54.47;;;22.73;;
18822;SDS011;9540;51.550;7.980;2022-11-21T04:10:06;60.90;;;23.73;;
18822;SDS011;9540;51.550;7.980;2022-11-21T04:12:33;102.93;;;27.23;;
18822;SDS011;9540;51.550;7.980;2022-11-21T04:15:00;87.27;;;28.43;;
18822;SDS011;9540;51.550;7.980;2022-11-21T04:17:27;88.63;;;28.47;;
18822;SDS011;9540;51.550;7.980;2022-11-21T04:19:56;76.87;;;26.17;;
18822;SDS011;9540;51.550;7.980;2022-11-21T04:22:22;87.77;;;29.33;;
18822;SDS011;9540;51.550;7.980;2022-11-21T04:24:51;79.07;;;28.97;;
18822;SDS011;9540;51.550;7.980;2022-11-21T04:27:19;75.13;;;26.67;;
18822;SDS011;9540;51.550;7.980;2022-11-21T04:29:46;85.67;;;28.67;;
18822;SDS011;9540;51.550;7.980;2022-11-21T04:32:13;69.30;;;26.23;;
18822;SDS011;9540;51.550;7.980;2022-11-21T04:34:40;62.90;;;24.33;;
18822;SDS011;9540;51.550;7.980;2022-11-21T04:37:07;70.43;;;24.53;;
18822;SDS011;9540;51.550;7.980;2022-11-21T04:39:34;67.27;;;25.43;;
18822;SDS011;9540;51.550;7.980;2022-11-21T04:42:02;76.50;;;24.97;;
18822;SDS011;9540;51.550;7.980;2022-11-21T04:44:29;77.07;;;27.00;;
18822;SDS011;9540;51.550;7.980;2022-11-21T04:46:56;64.70;;;25.40;;
18822;SDS011;9540;51.550;7.980;2022-11-21T04:49:24;79.27;;;26.27;;
18822;SDS011;9540;51.550;7.980;2022-11-21T04:51:51;85.40;;;25.97;;
18822;SDS011;9540;51.550;7.980;2022-11-21T04:54:18;66.47;;;24.93;;
18822;SDS011;9540;51.550;7.980;2022-11-21T04:56:45;59.00;;;23.33;;
18822;SDS011;9540;51.550;7.980;2022-11-21T04:59:13;79.27;;;25.83;;
18822;SDS011;9540;51.550;7.980;2022-11-21T05:01:40;56.03;;;22.27;;
18822;SDS011;9540;51.550;7.980;2022-11-21T05:04:07;64.63;;;22.87;;
18822;SDS011;9540;51.550;7.980;2022-11-21T05:06:34;59.87;;;23.13;;
18822;SDS011;9540;51.550;7.980;2022-11-21T05:09:01;73.63;;;25.27;;
18822;SDS011;9540;51.550;7.980;2022-11-21T05:11:28;55.87;;;21.97;;
18822;SDS011;9540;51.550;7.980;2022-11-21T05:14:13;60.53;;;23.83;;
18822;SDS011;9540;51.550;7.980;2022-11-21T05:16:41;78.73;;;26.10;;
18822;SDS011;9540;51.550;7.980;2022-11-21T05:19:07;68.80;;;22.73;;
18822;SDS011;9540;51.550;7.980;2022-11-21T05:21:35;75.27;;;24.13;;
18822;SDS011;9540;51.550;7.980;2022-11-21T05:24:02;77.63;;;25.47;;
18822;SDS011;9540;51.550;7.980;2022-11-21T05:26:29;89.00;;;26.03;;
18822;SDS011;9540;51.550;7.980;2022-11-21T05:28:56;81.80;;;26.30;;
18822;SDS011;9540;51.550;7.980;2022-11-21T05:31:24;74.57;;;26.40;;
18822;SDS011;9540;51.550;7.980;2022-11-21T05:33:51;66.73;;;23.43;;
18822;SDS011;9540;51.550;7.980;2022-11-21T05:36:18;68.67;;;24.23;;
18822;SDS011;9540;51.550;7.980;2022-11-21T05:38:45;68.70;;;22.40;;
18822;SDS011;9540;51.550;7.980;2022-11-21T05:41:12;61.33;;;20.37;;
18822;SDS011;9540;51.550;7.980;2022-11-21T05:43:39;71.53;;;22.43;;
18822;SDS011;9540;51.550;7.980;2022-11-21T05:46:11;57.80;;;21.00;;
18822;SDS011;9540;51.550;7.980;2022-11-21T05:48:39;78.07;;;23.77;;
18822;SDS011;9540;51.550;7.980;2022-11-21T05:51:06;78.23;;;23.67;;
18822;SDS011;9540;51.550;7.980;2022-11-21T05:53:34;70.37;;;23.70;;
18822;SDS011;9540;51.550;7.980;2022-11-21T05:56:02;79.07;;;23.83;;
18822;SDS011;9540;51.550;7.980;2022-11-21T05:58:30;81.33;;;25.10;;
18822;SDS011;9540;51.550;7.980;2022-11-21T06:00:58;72.20;;;22.43;;
18822;SDS011;9540;51.550;7.980;2022-11-21T06:03:26;53.43;;;19.50;;
18822;SDS011;9540;51.550;7.980;2022-11-21T06:06:02;63.00;;;21.77;;
18822;SDS011;9540;51.550;7.980;2022-11-21T06:08:31;69.43;;;23.10;;
18822;SDS011;9540;51.550;7.980;2022-11-21T06:10:59;83.97;;;21.63;;
18822;SDS011;9540;51.550;7.980;2022-11-21T06:13:27;75.47;;;21.03;;
18822;SDS011;9540;51.550;7.980;2022-11-21T06:15:57;62.37;;;18.07;;
18822;SDS011;9540;51.550;7.980;2022-11-21T06:18:25;75.17;;;19.07;;
18822;SDS011;9540;51.550;7.980;2022-11-21T06:20:53;57.77;;;15.83;;
18822;SDS011;9540;51.550;7.980;2022-11-21T06:23:27;71.77;;;19.47;;
18822;SDS011;9540;51.550;7.980;2022-11-21T06:25:55;75.67;;;21.37;;
18822;SDS011;9540;51.550;7.980;2022-11-21T06:28:23;78.20;;;20.50;;
18822;SDS011;9540;51.550;7.980;2022-11-21T06:30:50;75.30;;;19.47;;
18822;SDS011;9540;51.550;7.980;2022-11-21T06:33:17;81.77;;;18.50;;
18822;SDS011;9540;51.550;7.980;2022-11-21T06:35:44;83.67;;;23.00;;
18822;SDS011;9540;51.550;7.980;2022-11-21T06:38:11;67.77;;;22.07;;
18822;SDS011;9540;51.550;7.980;2022-11-21T06:40:40;79.13;;;21.00;;
18822;SDS011;9540;51.550;7.980;2022-11-21T06:43:07;73.47;;;20.83;;
18822;SDS011;9540;51.550;7.980;2022-11-21T06:45:33;80.27;;;19.77;;
18822;SDS011;9540;51.550;7.980;2022-11-21T06:48:00;70.97;;;18.57;;
18822;SDS011;9540;51.550;7.980;2022-11-21T06:50:28;62.77;;;18.13;;
18822;SDS011;9540;51.550;7.980;2022-11-21T06:52:56;65.60;;;19.73;;
18822;SDS011;9540;51.550;7.980;2022-11-21T06:55:23;70.97;;;17.03;;
18822;SDS011;9540;51.550;7.980;2022-11-21T06:57:55;52.57;;;16.87;;
18822;SDS011;9540;51.550;7.980;2022-11-21T07:00:23;65.13;;;18.83;;
18822;SDS011;9540;51.550;7.980;2022-11-21T07:02:50;66.60;;;19.50;;
18822;SDS011;9540;51.550;7.980;2022-11-21T07:05:17;53.30;;;17.27;;
18822;SDS011;9540;51.550;7.980;2022-11-21T07:07:44;83.33;;;21.40;;
18822;SDS011;9540;51.550;7.980;2022-11-21T07:10:11;76.63;;;20.83;;
18822;SDS011;9540;51.550;7.980;2022-11-21T07:12:38;59.93;;;20.77;;
18822;SDS011;9540;51.550;7.980;2022-11-21T07:15:21;60.47;;;20.90;;
18822;SDS011;9540;51.550;7.980;2022-11-21T07:17:47;66.57;;;20.60;;
18822;SDS011;9540;51.550;7.980;2022-11-21T07:20:14;75.37;;;24.07;;
18822;SDS011;9540;51.550;7.980;2022-11-21T07:22:41;70.77;;;21.47;;
18822;SDS011;9540;51.550;7.980;2022-11-21T07:25:08;56.13;;;19.50;;
18822;SDS011;9540;51.550;7.980;2022-11-21T07:27:35;51.10;;;17.23;;
18822;SDS011;9540;51.550;7.980;2022-11-21T07:30:02;75.20;;;20.90;;
18822;SDS011;9540;51.550;7.980;2022-11-21T07:32:31;60.57;;;17.87;;
18822;SDS011;9540;51.550;7.980;2022-11-21T07:34:58;61.77;;;19.37;;
18822;SDS011;9540;51.550;7.980;2022-11-21T07:37:25;57.73;;;18.73;;
18822;SDS011;9540;51.550;7.980;2022-11-21T07:39:52;48.17;;;16.33;;
18822;SDS011;9540;51.550;7.980;2022-11-21T07:42:19;75.37;;;20.30;;
18822;SDS011;9540;51.550;7.980;2022-11-21T07:44:46;49.07;;;17.97;;
18822;SDS011;9540;51.550;7.980;2022-11-21T07:47:13;58.83;;;18.50;;
18822;SDS011;9540;51.550;7.980;2022-11-21T07:49:41;55.20;;;18.47;;
18822;SDS011;9540;51.550;7.980;2022-11-21T07:52:08;57.27;;;18.33;;
18822;SDS011;9540;51.550;7.980;2022-11-21T07:54:35;57.83;;;19.77;;
18822;SDS011;9540;51.550;7.980;2022-11-21T07:57:02;54.37;;;18.37;;
18822;SDS011;9540;51.550;7.980;2022-11-21T07:59:29;60.90;;;18.73;;
18822;SDS011;9540;51.550;7.980;2022-11-21T08:01:56;46.17;;;17.20;;
18822;SDS011;9540;51.550;7.980;2022-11-21T08:04:23;54.33;;;16.97;;
18822;SDS011;9540;51.550;7.980;2022-11-21T08:06:52;65.73;;;19.37;;
18822;SDS011;9540;51.550;7.980;2022-11-21T08:09:19;51.03;;;16.93;;
18822;SDS011;9540;51.550;7.980;2022-11-21T08:11:46;49.50;;;17.67;;
18822;SDS011;9540;51.550;7.980;2022-11-21T08:14:13;46.10;;;18.33;;
18822;SDS011;9540;51.550;7.980;2022-11-21T08:16:39;56.73;;;19.13;;
18822;SDS011;9540;51.550;7.980;2022-11-21T08:19:06;60.17;;;20.20;;
18822;SDS011;9540;51.550;7.980;2022-11-21T08:21:33;56.00;;;19.77;;
18822;SDS011;9540;51.550;7.980;2022-11-21T08:24:02;46.17;;;18.00;;
18822;SDS011;9540;51.550;7.980;2022-11-21T08:26:29;47.27;;;18.70;;
18822;SDS011;9540;51.550;7.980;2022-11-21T08:28:56;45.87;;;17.80;;
18822;SDS011;9540;51.550;7.980;2022-11-21T08:31:23;53.77;;;20.17;;
18822;SDS011;9540;51.550;7.980;2022-11-21T08:33:49;52.07;;;20.17;;
18822;SDS011;9540;51.550;7.980;2022-11-21T08:36:21;49.77;;;20.73;;
18822;SDS011;9540;51.550;7.980;2022-11-21T08:38:48;50.07;;;21.43;;
18822;SDS011;9540;51.550;7.980;2022-11-21T08:41:16;47.57;;;20.23;;
18822;SDS011;9540;51.550;7.980;2022-11-21T08:44:00;47.13;;;18.70;;
18822;SDS011;9540;51.550;7.980;2022-11-21T08:46:28;53.57;;;19.57;;
18822;SDS011;9540;51.550;7.980;2022-11-21T08:48:57;41.17;;;18.93;;
18822;SDS011;9540;51.550;7.980;2022-11-21T08:51:24;44.33;;;19.43;;
18822;SDS011;9540;51.550;7.980;2022-11-21T08:53:51;49.60;;;20.43;;
18822;SDS011;9540;51.550;7.980;2022-11-21T08:56:20;43.03;;;20.90;;
18822;SDS011;9540;51.550;7.980;2022-11-21T08:58:47;44.50;;;20.63;;
18822;SDS011;9540;51.550;7.980;2022-11-21T09:01:14;43.90;;;18.47;;
18822;SDS011;9540;51.550;7.980;2022-11-21T09:03:41;43.80;;;20.23;;
18822;SDS011;9540;51.550;7.980;2022-11-21T09:06:08;43.67;;;19.23;;
18822;SDS011;9540;51.550;7.980;2022-11-21T09:08:35;45.03;;;19.37;;
18822;SDS011;9540;51.550;7.980;2022-11-21T09:11:02;50.83;;;20.47;;
18822;SDS011;9540;51.550;7.980;2022-11-21T09:13:31;47.13;;;21.60;;
18822;SDS011;9540;51.550;7.980;2022-11-21T09:16:00;46.80;;;20.57;;
18822;SDS011;9540;51.550;7.980;2022-11-21T09:18:44;44.63;;;21.37;;
18822;SDS011;9540;51.550;7.980;2022-11-21T09:21:12;47.93;;;21.63;;
18822;SDS011;9540;51.550;7.980;2022-11-21T09:23:40;40.90;;;20.27;;
18822;SDS011;9540;51.550;7.980;2022-11-21T09:26:07;44.13;;;20.13;;
18822;SDS011;9540;51.550;7.980;2022-11-21T09:28:35;47.40;;;21.37;;
18822;SDS011;9540;51.550;7.980;2022-11-21T09:31:02;52.57;;;24.43;;
18822;SDS011;9540;51.550;7.980;2022-11-21T09:33:30;45.10;;;21.00;;
18822;SDS011;9540;51.550;7.980;2022-11-21T09:35:57;54.73;;;24.33;;
18822;SDS011;9540;51.550;7.980;2022-11-21T09:38:24;49.53;;;21.50;;
18822;SDS011;9540;51.550;7.980;2022-11-21T09:40:53;49.43;;;21.43;;
18822;SDS011;9540;51.550;7.980;2022-11-21T09:43:48;46.50;;;20.90;;
18822;SDS011;9540;51.550;7.980;2022-11-21T09:46:21;50.57;;;22.40;;
18822;SDS011;9540;51.550;7.980;2022-11-21T09:48:54;46.27;;;22.37;;
18822;SDS011;9540;51.550;7.980;2022-11-21T09:51:24;47.87;;;22.37;;
18822;SDS011;9540;51.550;7.980;2022-11-21T09:53:55;43.87;;;21.47;;
18822;SDS011;9540;51.550;7.980;2022-11-21T09:56:25;45.33;;;21.77;;
18822;SDS011;9540;51.550;7.980;2022-11-21T09:59:05;46.63;;;21.47;;
18822;SDS011;9540;51.550;7.980;2022-11-21T10:01:43;45.60;;;21.30;;
18822;SDS011;9540;51.550;7.980;2022-11-21T10:04:10;51.30;;;23.57;;
18822;SDS011;9540;51.550;7.980;2022-11-21T10:06:37;52.10;;;22.53;;
18822;SDS011;9540;51.550;7.980;2022-11-21T10:09:11;51.60;;;21.90;;
18822;SDS011;9540;51.550;7.980;2022-11-21T10:11:50;50.43;;;21.50;;
18822;SDS011;9540;51.550;7.980;2022-11-21T10:14:44;44.67;;;20.83;;
18822;SDS011;9540;51.550;7.980;2022-11-21T10:17:23;44.77;;;21.07;;
18822;SDS011;9540;51.550;7.980;2022-11-21T10:25:52;39.83;;;19.13;;
18822;SDS011;9540;51.550;7.980;2022-11-21T10:28:23;40.73;;;19.23;;
18822;SDS011;9540;51.550;7.980;2022-11-21T10:31:01;42.73;;;20.83;;
18822;SDS011;9540;51.550;7.980;2022-11-21T10:33:35;43.60;;;21.07;;
18822;SDS011;9540;51.550;7.980;2022-11-21T10:36:04;46.67;;;21.13;;
18822;SDS011;9540;51.550;7.980;2022-11-21T10:38:39;45.97;;;20.47;;
18822;SDS011;9540;51.550;7.980;2022-11-21T10:41:11;40.53;;;19.97;;
18822;SDS011;9540;51.550;7.980;2022-11-21T10:43:44;45.47;;;20.30;;
18822;SDS011;9540;51.550;7.980;2022-11-21T10:46:38;41.17;;;19.53;;
18822;SDS011;9540;51.550;7.980;2022-11-21T10:49:09;47.87;;;21.60;;
18822;SDS011;9540;51.550;7.980;2022-11-21T10:51:41;42.13;;;20.53;;
18822;SDS011;9540;51.550;7.980;2022-11-21T10:54:15;46.37;;;21.33;;
18822;SDS011;9540;51.550;7.980;2022-11-21T10:56:58;42.77;;;21.27;;
18822;SDS011;9540;51.550;7.980;2022-11-21T10:59:31;40.40;;;19.03;;
18822;SDS011;9540;51.550;7.980;2022-11-21T11:01:59;51.47;;;21.00;;
18822;SDS011;9540;51.550;7.980;2022-11-21T11:04:29;47.27;;;21.17;;
18822;SDS011;9540;51.550;7.980;2022-11-21T11:06:56;42.73;;;21.13;;
18822;SDS011;9540;51.550;7.980;2022-11-21T11:09:38;40.07;;;20.10;;
18822;SDS011;9540;51.550;7.980;2022-11-21T11:12:15;42.93;;;21.00;;
18822;SDS011;9540;51.550;7.980;2022-11-21T11:14:49;46.20;;;21.07;;
18822;SDS011;9540;51.550;7.980;2022-11-21T11:17:26;40.07;;;19.70;;
18822;SDS011;9540;51.550;7.980;2022-11-21T11:20:00;42.53;;;20.90;;
18822;SDS011;9540;51.550;7.980;2022-11-21T11:22:30;43.43;;;21.03;;
18822;SDS011;9540;51.550;7.980;2022-11-21T11:24:57;40.23;;;20.17;;
18822;SDS011;9540;51.550;7.980;2022-11-21T11:27:28;40.50;;;20.03;;
18822;SDS011;9540;51.550;7.980;2022-11-21T11:29:55;40.57;;;19.20;;
18822;SDS011;9540;51.550;7.980;2022-11-21T11:32:22;41.97;;;20.57;;
18822;SDS011;9540;51.550;7.980;2022-11-21T11:34:55;36.90;;;19.37;;
18822;SDS011;9540;51.550;7.980;2022-11-21T11:37:26;44.57;;;21.30;;
18822;SDS011;9540;51.550;7.980;2022-11-21T11:40:01;48.80;;;20.77;;
18822;SDS011;9540;51.550;7.980;2022-11-21T11:46:00;33.20;;;18.07;;
18822;SDS011;9540;51.550;7.980;2022-11-21T11:48:51;46.45;;;19.75;;
18822;SDS011;9540;51.550;7.980;2022-11-21T11:51:26;36.25;;;18.75;;
18822;SDS011;9540;51.550;7.980;2022-11-21T11:53:59;39.17;;;20.63;;
18822;SDS011;9540;51.550;7.980;2022-11-21T11:56:30;39.50;;;18.90;;
18822;SDS011;9540;51.550;7.980;2022-11-21T11:59:02;37.80;;;18.83;;
18822;SDS011;9540;51.550;7.980;2022-11-21T12:01:37;38.15;;;17.90;;
18822;SDS011;9540;51.550;7.980;2022-11-21T12:04:09;39.57;;;19.47;;
18822;SDS011;9540;51.550;7.980;2022-11-21T12:06:42;37.13;;;19.67;;
18822;SDS011;9540;51.550;7.980;2022-11-21T12:09:15;42.20;;;19.00;;
18822;SDS011;9540;51.550;7.980;2022-11-21T12:11:50;39.70;;;19.27;;
18822;SDS011;9540;51.550;7.980;2022-11-21T12:14:36;37.33;;;18.63;;
18822;SDS011;9540;51.550;7.980;2022-11-21T12:17:31;40.83;;;18.40;;
18822;SDS011;9540;51.550;7.980;2022-11-21T12:20:07;39.30;;;19.20;;
18822;SDS011;9540;51.550;7.980;2022-11-21T12:22:41;42.37;;;18.70;;
18822;SDS011;9540;51.550;7.980;2022-11-21T12:25:10;32.50;;;17.60;;
18822;SDS011;9540;51.550;7.980;2022-11-21T12:27:39;42.33;;;20.77;;
18822;SDS011;9540;51.550;7.980;2022-11-21T12:30:12;41.65;;;17.88;;
18822;SDS011;9540;51.550;7.980;2022-11-21T12:32:56;47.33;;;18.77;;
18822;SDS011;9540;51.550;7.980;2022-11-21T12:35:39;43.97;;;20.25;;
18822;SDS011;9540;51.550;7.980;2022-11-21T12:38:33;35.78;;;18.20;;
18822;SDS011;9540;51.550;7.980;2022-11-21T12:41:13;36.30;;;17.88;;
18822;SDS011;9540;51.550;7.980;2022-11-21T12:44:09;34.47;;;17.15;;
18822;SDS011;9540;51.550;7.980;2022-11-21T12:46:46;34.75;;;17.80;;
18822;SDS011;9540;51.550;7.980;2022-11-21T12:49:24;35.22;;;17.17;;
18822;SDS011;9540;51.550;7.980;2022-11-21T12:52:17;41.53;;;18.30;;
18822;SDS011;9540;51.550;7.980;2022-11-21T12:55:15;31.25;;;16.50;;
18822;SDS011;9540;51.550;7.980;2022-11-21T12:57:51;33.60;;;16.48;;
18822;SDS011;9540;51.550;7.980;2022-11-21T13:00:31;30.65;;;15.07;;
18822;SDS011;9540;51.550;7.980;2022-11-21T13:03:17;32.45;;;15.25;;
18822;SDS011;9540;51.550;7.980;2022-11-21T13:05:53;34.38;;;16.52;;
18822;SDS011;9540;51.550;7.980;2022-11-21T13:08:23;32.70;;;15.80;;
18822;SDS011;9540;51.550;7.980;2022-11-21T13:10:57;36.40;;;15.93;;
18822;SDS011;9540;51.550;7.980;2022-11-21T13:13:51;34.55;;;16.15;;
18822;SDS011;9540;51.550;7.980;2022-11-21T13:16:25;30.55;;;15.05;;
18822;SDS011;9540;51.550;7.980;2022-11-21T13:19:02;26.08;;;14.25;;
18822;SDS011;9540;51.550;7.980;2022-11-21T13:21:40;30.27;;;15.15;;
18822;SDS011;9540;51.550;7.980;2022-11-21T13:24:08;30.73;;;15.73;;
18822;SDS011;9540;51.550;7.980;2022-11-21T13:26:49;33.80;;;15.25;;
18822;SDS011;9540;51.550;7.980;2022-11-21T13:29:18;29.98;;;14.65;;
18822;SDS011;9540;51.550;7.980;2022-11-21T13:31:45;31.50;;;13.98;;
18822;SDS011;9540;51.550;7.980;2022-11-21T13:34:33;28.17;;;14.70;;
18822;SDS011;9540;51.550;7.980;2022-11-21T13:37:01;25.60;;;13.18;;
18822;SDS011;9540;51.550;7.980;2022-11-21T13:39:30;26.00;;;13.80;;
18822;SDS011;9540;51.550;7.980;2022-11-21T13:42:04;26.65;;;14.35;;
18822;SDS011;9540;51.550;7.980;2022-11-21T13:44:49;29.88;;;13.85;;
18822;SDS011;9540;51.550;7.980;2022-11-21T13:47:35;28.13;;;14.35;;
18822;SDS011;9540;51.550;7.980;2022-11-21T13:50:47;20.73;;;12.02;;
18822;SDS011;9540;51.550;7.980;2022-11-21T13:53:41;27.52;;;14.38;;
18822;SDS011;9540;51.550;7.980;2022-11-21T13:56:34;26.17;;;13.32;;
18822;SDS011;9540;51.550;7.980;2022-11-21T13:59:13;25.95;;;13.25;;
18822;SDS011;9540;51.550;7.980;2022-11-21T14:02:02;25.40;;;14.10;;
18822;SDS011;9540;51.550;7.980;2022-11-21T14:04:56;28.73;;;12.75;;
18822;SDS011;9540;51.550;7.980;2022-11-21T14:07:40;30.92;;;14.23;;
18822;SDS011;9540;51.550;7.980;2022-11-21T14:10:17;26.63;;;13.13;;
18822;SDS011;9540;51.550;7.980;2022-11-21T14:12:54;20.50;;;12.80;;
18822;SDS011;9540;51.550;7.980;2022-11-21T14:15:25;29.05;;;13.13;;
18822;SDS011;9540;51.550;7.980;2022-11-21T14:17:57;20.83;;;12.98;;
18822;SDS011;9540;51.550;7.980;2022-11-21T14:20:26;23.35;;;12.35;;
18822;SDS011;9540;51.550;7.980;2022-11-21T14:22:57;26.15;;;12.20;;
18822;SDS011;9540;51.550;7.980;2022-11-21T14:25:41;17.52;;;11.25;;
18822;SDS011;9540;51.550;7.980;2022-11-21T14:28:11;20.40;;;11.18;;
18822;SDS011;9540;51.550;7.980;2022-11-21T14:30:43;20.90;;;10.95;;
18822;SDS011;9540;51.550;7.980;2022-11-21T14:33:23;21.70;;;11.07;;
18822;SDS011;9540;51.550;7.980;2022-11-21T14:36:01;24.98;;;11.88;;
18822;SDS011;9540;51.550;7.980;2022-11-21T14:38:32;20.80;;;11.52;;
18822;SDS011;9540;51.550;7.980;2022-11-21T14:44:13;17.67;;;10.77;;
18822;SDS011;9540;51.550;7.980;2022-11-21T14:46:46;21.20;;;11.83;;
18822;SDS011;9540;51.550;7.980;2022-11-21T14:49:18;17.23;;;10.37;;
18822;SDS011;9540;51.550;7.980;2022-11-21T14:51:51;19.92;;;9.85;;
18822;SDS011;9540;51.550;7.980;2022-11-21T14:54:24;22.83;;;9.43;;
18822;SDS011;9540;51.550;7.980;2022-11-21T14:56:57;14.52;;;9.57;;
18822;SDS011;9540;51.550;7.980;2022-11-21T14:59:26;16.87;;;9.13;;
18822;SDS011;9540;51.550;7.980;2022-11-21T15:01:58;14.30;;;8.53;;
18822;SDS011;9540;51.550;7.980;2022-11-21T15:04:28;12.90;;;8.37;;
18822;SDS011;9540;51.550;7.980;2022-11-21T15:06:57;16.30;;;9.17;;
18822;SDS011;9540;51.550;7.980;2022-11-21T15:09:24;15.93;;;8.83;;
18822;SDS011;9540;51.550;7.980;2022-11-21T15:11:53;19.07;;;9.40;;